sensor_id;sensor_type;location;lat;lon;timestamp;P1;durP1;ratioP1;P2;durP2;ratioP2
56457;SDS011;42360;42.918;12.366;2022-08-21T00:01:03;2.60;;;1.80;;
56457;SDS011;42360;42.918;12.366;2022-08-21T00:03:31;3.90;;;1.83;;
56457;SDS011;42360;42.918;12.366;2022-08-21T00:05:57;2.70;;;1.70;;
56457;SDS011;42360;42.918;12.366;2022-08-21T00:08:23;3.97;;;1.80;;
56457;SDS011;42360;42.918;12.366;2022-08-21T00:10:49;3.00;;;1.80;;
56457;SDS011;42360;42.918;12.366;2022-08-21T00:13:15;2.20;;;1.77;;
56457;SDS011;42360;42.918;12.366;2022-08-21T00:15:42;1.55;;;1.45;;
56457;SDS011;42360;42.918;12.366;2022-08-21T00:18:08;2.72;;;1.52;;
56457;SDS011;42360;42.918;12.366;2022-08-21T00:20:36;3.47;;;2.10;;
56457;SDS011;42360;42.918;12.366;2022-08-21T00:23:02;4.72;;;1.60;;
56457;SDS011;42360;42.918;12.366;2022-08-21T00:25:28;2.33;;;1.40;;
56457;SDS011;42360;42.918;12.366;2022-08-21T00:27:54;2.90;;;1.83;;
56457;SDS011;42360;42.918;12.366;2022-08-21T00:30:21;2.92;;;1.65;;
56457;SDS011;42360;42.918;12.366;2022-08-21T00:32:49;3.85;;;1.67;;
56457;SDS011;42360;42.918;12.366;2022-08-21T00:35:17;2.10;;;1.63;;
56457;SDS011;42360;42.918;12.366;2022-08-21T00:37:44;1.88;;;1.55;;
56457;SDS011;42360;42.918;12.366;2022-08-21T00:40:11;2.55;;;1.70;;
56457;SDS011;42360;42.918;12.366;2022-08-21T00:42:39;4.28;;;1.80;;
56457;SDS011;42360;42.918;12.366;2022-08-21T00:45:05;3.47;;;1.90;;
56457;SDS011;42360;42.918;12.366;2022-08-21T00:47:31;2.10;;;1.50;;
56457;SDS011;42360;42.918;12.366;2022-08-21T00:49:57;3.85;;;1.83;;
56457;SDS011;42360;42.918;12.366;2022-08-21T00:52:24;2.67;;;1.80;;
56457;SDS011;42360;42.918;12.366;2022-08-21T00:54:52;2.70;;;1.58;;
56457;SDS011;42360;42.918;12.366;2022-08-21T00:57:21;3.05;;;1.98;;
56457;SDS011;42360;42.918;12.366;2022-08-21T00:59:53;1.77;;;1.65;;
56457;SDS011;42360;42.918;12.366;2022-08-21T01:02:21;2.38;;;1.73;;
56457;SDS011;42360;42.918;12.366;2022-08-21T01:04:47;2.97;;;1.58;;
56457;SDS011;42360;42.918;12.366;2022-08-21T01:07:13;2.30;;;1.73;;
56457;SDS011;42360;42.918;12.366;2022-08-21T01:09:39;2.45;;;1.50;;
56457;SDS011;42360;42.918;12.366;2022-08-21T01:12:06;4.35;;;1.73;;
56457;SDS011;42360;42.918;12.366;2022-08-21T01:14:32;5.20;;;2.05;;
56457;SDS011;42360;42.918;12.366;2022-08-21T01:16:58;3.22;;;1.60;;
56457;SDS011;42360;42.918;12.366;2022-08-21T01:19:24;3.08;;;1.70;;
56457;SDS011;42360;42.918;12.366;2022-08-21T01:21:51;2.00;;;1.60;;
56457;SDS011;42360;42.918;12.366;2022-08-21T01:24:17;3.00;;;1.80;;
56457;SDS011;42360;42.918;12.366;2022-08-21T01:26:43;3.13;;;1.52;;
56457;SDS011;42360;42.918;12.366;2022-08-21T01:31:56;4.07;;;1.70;;
56457;SDS011;42360;42.918;12.366;2022-08-21T01:34:22;2.47;;;1.77;;
56457;SDS011;42360;42.918;12.366;2022-08-21T01:36:48;1.92;;;1.67;;
56457;SDS011;42360;42.918;12.366;2022-08-21T01:39:14;1.67;;;1.58;;
56457;SDS011;42360;42.918;12.366;2022-08-21T01:41:40;4.65;;;1.70;;
56457;SDS011;42360;42.918;12.366;2022-08-21T01:44:05;3.50;;;1.80;;
56457;SDS011;42360;42.918;12.366;2022-08-21T01:46:31;2.85;;;1.83;;
56457;SDS011;42360;42.918;12.366;2022-08-21T01:48:57;3.78;;;1.83;;
56457;SDS011;42360;42.918;12.366;2022-08-21T01:51:23;2.95;;;1.92;;
56457;SDS011;42360;42.918;12.366;2022-08-21T01:53:49;2.78;;;1.80;;
56457;SDS011;42360;42.918;12.366;2022-08-21T01:56:15;2.67;;;1.90;;
56457;SDS011;42360;42.918;12.366;2022-08-21T01:58:42;2.72;;;1.70;;
56457;SDS011;42360;42.918;12.366;2022-08-21T02:01:09;2.78;;;1.90;;
56457;SDS011;42360;42.918;12.366;2022-08-21T02:03:35;2.35;;;1.95;;
56457;SDS011;42360;42.918;12.366;2022-08-21T02:06:05;2.28;;;1.67;;
56457;SDS011;42360;42.918;12.366;2022-08-21T02:08:31;1.70;;;1.60;;
56457;SDS011;42360;42.918;12.366;2022-08-21T02:10:57;2.15;;;1.48;;
56457;SDS011;42360;42.918;12.366;2022-08-21T02:13:23;3.15;;;1.50;;
56457;SDS011;42360;42.918;12.366;2022-08-21T02:15:49;1.98;;;1.75;;
56457;SDS011;42360;42.918;12.366;2022-08-21T02:18:14;2.22;;;1.73;;
56457;SDS011;42360;42.918;12.366;2022-08-21T02:20:42;3.05;;;1.40;;
56457;SDS011;42360;42.918;12.366;2022-08-21T02:23:10;1.75;;;1.65;;
56457;SDS011;42360;42.918;12.366;2022-08-21T02:25:36;2.17;;;1.67;;
56457;SDS011;42360;42.918;12.366;2022-08-21T02:28:04;3.83;;;2.00;;
56457;SDS011;42360;42.918;12.366;2022-08-21T02:30:33;4.57;;;2.10;;
56457;SDS011;42360;42.918;12.366;2022-08-21T02:33:03;2.75;;;2.10;;
56457;SDS011;42360;42.918;12.366;2022-08-21T02:35:29;2.00;;;1.90;;
56457;SDS011;42360;42.918;12.366;2022-08-21T02:37:56;2.72;;;1.80;;
56457;SDS011;42360;42.918;12.366;2022-08-21T02:40:28;3.20;;;1.77;;
56457;SDS011;42360;42.918;12.366;2022-08-21T02:42:57;2.20;;;1.55;;
56457;SDS011;42360;42.918;12.366;2022-08-21T02:45:23;2.08;;;1.60;;
56457;SDS011;42360;42.918;12.366;2022-08-21T02:47:49;2.03;;;1.52;;
56457;SDS011;42360;42.918;12.366;2022-08-21T02:50:17;4.82;;;2.05;;
56457;SDS011;42360;42.918;12.366;2022-08-21T02:52:48;1.70;;;1.58;;
56457;SDS011;42360;42.918;12.366;2022-08-21T02:55:14;2.38;;;1.70;;
56457;SDS011;42360;42.918;12.366;2022-08-21T02:57:40;2.55;;;1.73;;
56457;SDS011;42360;42.918;12.366;2022-08-21T03:00:06;3.05;;;2.03;;
56457;SDS011;42360;42.918;12.366;2022-08-21T03:02:33;3.38;;;1.58;;
56457;SDS011;42360;42.918;12.366;2022-08-21T03:04:59;2.88;;;1.90;;
56457;SDS011;42360;42.918;12.366;2022-08-21T03:07:25;2.92;;;1.90;;
56457;SDS011;42360;42.918;12.366;2022-08-21T03:09:51;2.10;;;1.77;;
56457;SDS011;42360;42.918;12.366;2022-08-21T03:12:17;2.20;;;1.70;;
56457;SDS011;42360;42.918;12.366;2022-08-21T03:14:43;2.92;;;1.85;;
56457;SDS011;42360;42.918;12.366;2022-08-21T03:17:08;2.92;;;1.73;;
56457;SDS011;42360;42.918;12.366;2022-08-21T03:19:34;4.63;;;1.83;;
56457;SDS011;42360;42.918;12.366;2022-08-21T03:22:00;3.05;;;1.90;;
56457;SDS011;42360;42.918;12.366;2022-08-21T03:24:25;7.15;;;3.45;;
56457;SDS011;42360;42.918;12.366;2022-08-21T03:26:51;3.10;;;1.92;;
56457;SDS011;42360;42.918;12.366;2022-08-21T03:29:17;2.10;;;1.90;;
56457;SDS011;42360;42.918;12.366;2022-08-21T03:31:42;5.45;;;2.55;;
56457;SDS011;42360;42.918;12.366;2022-08-21T03:34:08;2.58;;;2.33;;
56457;SDS011;42360;42.918;12.366;2022-08-21T03:36:34;4.32;;;2.10;;
56457;SDS011;42360;42.918;12.366;2022-08-21T03:38:59;2.30;;;2.00;;
56457;SDS011;42360;42.918;12.366;2022-08-21T03:41:25;2.15;;;1.90;;
56457;SDS011;42360;42.918;12.366;2022-08-21T03:43:51;2.95;;;1.95;;
56457;SDS011;42360;42.918;12.366;2022-08-21T03:46:16;4.85;;;2.53;;
56457;SDS011;42360;42.918;12.366;2022-08-21T03:48:42;3.95;;;2.03;;
56457;SDS011;42360;42.918;12.366;2022-08-21T03:51:08;4.20;;;2.30;;
56457;SDS011;42360;42.918;12.366;2022-08-21T03:53:33;3.38;;;2.70;;
56457;SDS011;42360;42.918;12.366;2022-08-21T03:55:59;2.95;;;2.13;;
56457;SDS011;42360;42.918;12.366;2022-08-21T03:58:26;2.92;;;2.28;;
56457;SDS011;42360;42.918;12.366;2022-08-21T04:00:54;2.67;;;2.00;;
56457;SDS011;42360;42.918;12.366;2022-08-21T04:03:23;4.75;;;2.13;;
56457;SDS011;42360;42.918;12.366;2022-08-21T04:05:49;4.18;;;2.20;;
56457;SDS011;42360;42.918;12.366;2022-08-21T04:08:15;4.05;;;3.05;;
56457;SDS011;42360;42.918;12.366;2022-08-21T04:10:45;2.72;;;2.00;;
56457;SDS011;42360;42.918;12.366;2022-08-21T04:13:12;2.78;;;1.95;;
56457;SDS011;42360;42.918;12.366;2022-08-21T04:15:39;5.38;;;2.08;;
56457;SDS011;42360;42.918;12.366;2022-08-21T04:18:06;2.75;;;1.92;;
56457;SDS011;42360;42.918;12.366;2022-08-21T04:20:33;4.15;;;2.58;;
56457;SDS011;42360;42.918;12.366;2022-08-21T04:23:00;2.63;;;1.90;;
56457;SDS011;42360;42.918;12.366;2022-08-21T04:25:26;4.07;;;1.85;;
56457;SDS011;42360;42.918;12.366;2022-08-21T04:27:52;3.70;;;1.95;;
56457;SDS011;42360;42.918;12.366;2022-08-21T04:30:18;3.67;;;2.33;;
56457;SDS011;42360;42.918;12.366;2022-08-21T04:32:45;4.45;;;1.90;;
56457;SDS011;42360;42.918;12.366;2022-08-21T04:35:13;3.45;;;2.13;;
56457;SDS011;42360;42.918;12.366;2022-08-21T04:37:39;2.97;;;2.10;;
56457;SDS011;42360;42.918;12.366;2022-08-21T04:40:05;2.58;;;2.00;;
56457;SDS011;42360;42.918;12.366;2022-08-21T04:42:32;3.38;;;2.13;;
56457;SDS011;42360;42.918;12.366;2022-08-21T04:44:58;3.22;;;2.70;;
56457;SDS011;42360;42.918;12.366;2022-08-21T04:47:23;3.03;;;2.03;;
56457;SDS011;42360;42.918;12.366;2022-08-21T04:49:50;3.00;;;2.00;;
56457;SDS011;42360;42.918;12.366;2022-08-21T04:52:17;3.00;;;2.70;;
56457;SDS011;42360;42.918;12.366;2022-08-21T04:54:45;4.57;;;2.05;;
56457;SDS011;42360;42.918;12.366;2022-08-21T04:57:12;3.22;;;2.30;;
56457;SDS011;42360;42.918;12.366;2022-08-21T04:59:42;3.13;;;2.20;;
56457;SDS011;42360;42.918;12.366;2022-08-21T05:02:11;3.30;;;2.45;;
56457;SDS011;42360;42.918;12.366;2022-08-21T05:04:41;4.40;;;3.08;;
56457;SDS011;42360;42.918;12.366;2022-08-21T05:07:10;4.53;;;3.33;;
56457;SDS011;42360;42.918;12.366;2022-08-21T05:09:41;4.53;;;2.45;;
56457;SDS011;42360;42.918;12.366;2022-08-21T05:12:07;3.17;;;2.53;;
56457;SDS011;42360;42.918;12.366;2022-08-21T05:14:33;4.43;;;2.40;;
56457;SDS011;42360;42.918;12.366;2022-08-21T05:16:59;3.60;;;3.08;;
56457;SDS011;42360;42.918;12.366;2022-08-21T05:19:24;4.82;;;2.58;;
56457;SDS011;42360;42.918;12.366;2022-08-21T05:21:50;4.60;;;2.80;;
56457;SDS011;42360;42.918;12.366;2022-08-21T05:24:16;5.32;;;2.20;;
56457;SDS011;42360;42.918;12.366;2022-08-21T05:26:43;3.45;;;2.30;;
56457;SDS011;42360;42.918;12.366;2022-08-21T05:29:09;2.83;;;2.45;;
56457;SDS011;42360;42.918;12.366;2022-08-21T05:31:36;3.50;;;2.65;;
56457;SDS011;42360;42.918;12.366;2022-08-21T05:34:02;4.30;;;3.65;;
56457;SDS011;42360;42.918;12.366;2022-08-21T05:36:28;3.72;;;3.00;;
56457;SDS011;42360;42.918;12.366;2022-08-21T05:38:54;4.07;;;2.45;;
56457;SDS011;42360;42.918;12.366;2022-08-21T05:41:20;3.97;;;2.60;;
56457;SDS011;42360;42.918;12.366;2022-08-21T05:43:45;7.10;;;3.45;;
56457;SDS011;42360;42.918;12.366;2022-08-21T05:46:11;6.00;;;3.50;;
56457;SDS011;42360;42.918;12.366;2022-08-21T05:48:37;3.17;;;2.83;;
56457;SDS011;42360;42.918;12.366;2022-08-21T05:51:06;9.10;;;8.30;;
56457;SDS011;42360;42.918;12.366;2022-08-21T05:55:59;5.32;;;4.93;;
56457;SDS011;42360;42.918;12.366;2022-08-21T05:58:25;4.43;;;4.00;;
56457;SDS011;42360;42.918;12.366;2022-08-21T06:00:51;12.80;;;11.85;;
56457;SDS011;42360;42.918;12.366;2022-08-21T06:03:19;3.30;;;2.97;;
56457;SDS011;42360;42.918;12.366;2022-08-21T06:05:46;7.13;;;6.47;;
56457;SDS011;42360;42.918;12.366;2022-08-21T06:08:12;8.38;;;7.78;;
56457;SDS011;42360;42.918;12.366;2022-08-21T06:10:38;3.35;;;3.05;;
56457;SDS011;42360;42.918;12.366;2022-08-21T06:13:04;6.38;;;5.78;;
56457;SDS011;42360;42.918;12.366;2022-08-21T06:15:30;4.07;;;3.67;;
56457;SDS011;42360;42.918;12.366;2022-08-21T06:17:56;5.22;;;4.82;;
56457;SDS011;42360;42.918;12.366;2022-08-21T06:20:22;7.32;;;5.38;;
56457;SDS011;42360;42.918;12.366;2022-08-21T06:22:48;8.13;;;7.25;;
56457;SDS011;42360;42.918;12.366;2022-08-21T06:25:14;5.47;;;3.45;;
56457;SDS011;42360;42.918;12.366;2022-08-21T06:27:39;4.13;;;2.90;;
56457;SDS011;42360;42.918;12.366;2022-08-21T06:30:06;6.05;;;5.38;;
56457;SDS011;42360;42.918;12.366;2022-08-21T06:32:32;6.90;;;4.22;;
56457;SDS011;42360;42.918;12.366;2022-08-21T06:34:59;6.25;;;4.80;;
56457;SDS011;42360;42.918;12.366;2022-08-21T06:37:24;5.28;;;3.78;;
56457;SDS011;42360;42.918;12.366;2022-08-21T06:39:50;6.85;;;4.80;;
56457;SDS011;42360;42.918;12.366;2022-08-21T06:42:16;5.18;;;4.70;;
56457;SDS011;42360;42.918;12.366;2022-08-21T06:44:42;4.82;;;3.67;;
56457;SDS011;42360;42.918;12.366;2022-08-21T06:47:08;6.45;;;3.80;;
56457;SDS011;42360;42.918;12.366;2022-08-21T06:49:35;3.95;;;3.22;;
56457;SDS011;42360;42.918;12.366;2022-08-21T06:52:00;5.80;;;2.90;;
56457;SDS011;42360;42.918;12.366;2022-08-21T06:54:26;3.95;;;3.10;;
56457;SDS011;42360;42.918;12.366;2022-08-21T06:56:52;5.45;;;2.42;;
56457;SDS011;42360;42.918;12.366;2022-08-21T06:59:18;3.80;;;2.80;;
56457;SDS011;42360;42.918;12.366;2022-08-21T07:01:44;2.92;;;2.40;;
56457;SDS011;42360;42.918;12.366;2022-08-21T07:04:10;2.42;;;2.20;;
56457;SDS011;42360;42.918;12.366;2022-08-21T07:06:35;6.55;;;2.10;;
56457;SDS011;42360;42.918;12.366;2022-08-21T07:09:01;5.93;;;2.72;;
56457;SDS011;42360;42.918;12.366;2022-08-21T07:11:28;4.55;;;2.15;;
56457;SDS011;42360;42.918;12.366;2022-08-21T07:13:53;4.00;;;2.67;;
56457;SDS011;42360;42.918;12.366;2022-08-21T07:16:21;4.40;;;3.67;;
56457;SDS011;42360;42.918;12.366;2022-08-21T07:18:47;7.82;;;5.30;;
56457;SDS011;42360;42.918;12.366;2022-08-21T07:21:13;12.18;;;11.18;;
56457;SDS011;42360;42.918;12.366;2022-08-21T07:23:40;4.45;;;3.45;;
56457;SDS011;42360;42.918;12.366;2022-08-21T07:26:08;7.45;;;3.80;;
56457;SDS011;42360;42.918;12.366;2022-08-21T07:28:35;4.88;;;3.30;;
56457;SDS011;42360;42.918;12.366;2022-08-21T07:31:02;6.80;;;4.40;;
56457;SDS011;42360;42.918;12.366;2022-08-21T07:33:29;6.32;;;3.63;;
56457;SDS011;42360;42.918;12.366;2022-08-21T07:35:56;3.42;;;3.13;;
56457;SDS011;42360;42.918;12.366;2022-08-21T07:38:22;4.68;;;4.03;;
56457;SDS011;42360;42.918;12.366;2022-08-21T07:40:48;3.72;;;2.83;;
56457;SDS011;42360;42.918;12.366;2022-08-21T07:43:14;3.83;;;2.65;;
56457;SDS011;42360;42.918;12.366;2022-08-21T07:45:44;3.53;;;2.67;;
56457;SDS011;42360;42.918;12.366;2022-08-21T07:48:10;4.03;;;2.85;;
56457;SDS011;42360;42.918;12.366;2022-08-21T07:50:36;6.57;;;2.90;;
56457;SDS011;42360;42.918;12.366;2022-08-21T07:53:02;5.10;;;2.97;;
56457;SDS011;42360;42.918;12.366;2022-08-21T07:55:29;4.43;;;3.30;;
56457;SDS011;42360;42.918;12.366;2022-08-21T07:57:54;4.45;;;2.58;;
56457;SDS011;42360;42.918;12.366;2022-08-21T08:00:21;5.57;;;5.07;;
56457;SDS011;42360;42.918;12.366;2022-08-21T08:02:49;5.00;;;3.97;;
56457;SDS011;42360;42.918;12.366;2022-08-21T08:05:16;6.68;;;6.07;;
56457;SDS011;42360;42.918;12.366;2022-08-21T08:07:43;9.48;;;7.05;;
56457;SDS011;42360;42.918;12.366;2022-08-21T08:10:08;6.43;;;3.40;;
56457;SDS011;42360;42.918;12.366;2022-08-21T08:12:39;5.57;;;2.92;;
56457;SDS011;42360;42.918;12.366;2022-08-21T08:15:07;5.28;;;3.30;;
56457;SDS011;42360;42.918;12.366;2022-08-21T08:17:35;4.50;;;3.00;;
56457;SDS011;42360;42.918;12.366;2022-08-21T08:20:02;3.28;;;2.38;;
56457;SDS011;42360;42.918;12.366;2022-08-21T08:22:28;5.90;;;2.67;;
56457;SDS011;42360;42.918;12.366;2022-08-21T08:24:54;3.95;;;2.47;;
56457;SDS011;42360;42.918;12.366;2022-08-21T08:27:21;4.65;;;2.13;;
56457;SDS011;42360;42.918;12.366;2022-08-21T08:29:47;4.95;;;2.10;;
56457;SDS011;42360;42.918;12.366;2022-08-21T08:32:13;3.50;;;2.20;;
56457;SDS011;42360;42.918;12.366;2022-08-21T08:34:39;5.47;;;2.30;;
56457;SDS011;42360;42.918;12.366;2022-08-21T08:37:05;3.85;;;2.03;;
56457;SDS011;42360;42.918;12.366;2022-08-21T08:39:32;3.63;;;2.25;;
56457;SDS011;42360;42.918;12.366;2022-08-21T08:42:09;4.53;;;2.20;;
56457;SDS011;42360;42.918;12.366;2022-08-21T08:44:41;3.42;;;2.10;;
56457;SDS011;42360;42.918;12.366;2022-08-21T08:47:12;2.95;;;2.00;;
56457;SDS011;42360;42.918;12.366;2022-08-21T08:49:49;2.58;;;1.80;;
56457;SDS011;42360;42.918;12.366;2022-08-21T08:52:22;3.05;;;1.88;;
56457;SDS011;42360;42.918;12.366;2022-08-21T08:55:20;3.15;;;2.38;;
56457;SDS011;42360;42.918;12.366;2022-08-21T08:57:47;3.70;;;2.20;;
56457;SDS011;42360;42.918;12.366;2022-08-21T09:00:15;3.90;;;2.00;;
56457;SDS011;42360;42.918;12.366;2022-08-21T09:02:43;2.58;;;1.60;;
56457;SDS011;42360;42.918;12.366;2022-08-21T09:05:15;2.90;;;2.00;;
56457;SDS011;42360;42.918;12.366;2022-08-21T09:07:54;3.15;;;2.80;;
56457;SDS011;42360;42.918;12.366;2022-08-21T09:13:06;3.13;;;2.08;;
56457;SDS011;42360;42.918;12.366;2022-08-21T09:15:53;3.95;;;1.70;;
56457;SDS011;42360;42.918;12.366;2022-08-21T09:18:27;1.80;;;1.70;;
56457;SDS011;42360;42.918;12.366;2022-08-21T09:26:31;3.42;;;3.13;;
56457;SDS011;42360;42.918;12.366;2022-08-21T09:29:01;3.30;;;1.80;;
56457;SDS011;42360;42.918;12.366;2022-08-21T09:31:31;2.95;;;2.75;;
56457;SDS011;42360;42.918;12.366;2022-08-21T09:34:24;2.70;;;1.92;;
56457;SDS011;42360;42.918;12.366;2022-08-21T09:36:52;4.22;;;1.85;;
56457;SDS011;42360;42.918;12.366;2022-08-21T09:40:01;2.35;;;1.70;;
56457;SDS011;42360;42.918;12.366;2022-08-21T09:42:08;3.45;;;1.60;;
56457;SDS011;42360;42.918;12.366;2022-08-21T09:44:40;2.88;;;1.30;;
56457;SDS011;42360;42.918;12.366;2022-08-21T09:47:10;3.67;;;1.30;;
56457;SDS011;42360;42.918;12.366;2022-08-21T09:49:40;1.15;;;1.05;;
56457;SDS011;42360;42.918;12.366;2022-08-21T09:52:15;1.48;;;1.00;;
56457;SDS011;42360;42.918;12.366;2022-08-21T09:54:48;2.53;;;2.10;;
56457;SDS011;42360;42.918;12.366;2022-08-21T09:57:19;1.33;;;0.93;;
56457;SDS011;42360;42.918;12.366;2022-08-21T10:00:09;2.42;;;1.20;;
56457;SDS011;42360;42.918;12.366;2022-08-21T10:02:41;1.35;;;0.98;;
56457;SDS011;42360;42.918;12.366;2022-08-21T10:05:08;2.42;;;1.10;;
56457;SDS011;42360;42.918;12.366;2022-08-21T10:07:42;1.52;;;1.20;;
56457;SDS011;42360;42.918;12.366;2022-08-21T10:10:13;1.10;;;1.00;;
56457;SDS011;42360;42.918;12.366;2022-08-21T10:18:20;2.13;;;1.20;;
56457;SDS011;42360;42.918;12.366;2022-08-21T10:34:25;1.52;;;1.23;;
56457;SDS011;42360;42.918;12.366;2022-08-21T10:42:31;1.77;;;1.30;;
56457;SDS011;42360;42.918;12.366;2022-08-21T10:47:53;1.30;;;0.98;;
56457;SDS011;42360;42.918;12.366;2022-08-21T10:50:28;1.10;;;1.00;;
56457;SDS011;42360;42.918;12.366;2022-08-21T10:53:22;2.08;;;0.77;;
56457;SDS011;42360;42.918;12.366;2022-08-21T10:55:58;2.10;;;1.90;;
56457;SDS011;42360;42.918;12.366;2022-08-21T10:58:31;1.88;;;1.17;;
56457;SDS011;42360;42.918;12.366;2022-08-21T11:07:26;1.10;;;1.00;;
56457;SDS011;42360;42.918;12.366;2022-08-21T11:09:55;2.30;;;1.35;;
56457;SDS011;42360;42.918;12.366;2022-08-21T11:12:40;2.17;;;1.25;;
56457;SDS011;42360;42.918;12.366;2022-08-21T11:15:27;2.13;;;0.80;;
56457;SDS011;42360;42.918;12.366;2022-08-21T11:20:59;0.80;;;0.70;;
56457;SDS011;42360;42.918;12.366;2022-08-21T11:26:39;1.58;;;0.80;;
56457;SDS011;42360;42.918;12.366;2022-08-21T11:29:24;1.27;;;0.70;;
56457;SDS011;42360;42.918;12.366;2022-08-21T11:31:59;1.08;;;0.80;;
56457;SDS011;42360;42.918;12.366;2022-08-21T11:37:29;1.98;;;0.73;;
56457;SDS011;42360;42.918;12.366;2022-08-21T11:40:56;1.15;;;0.70;;
56457;SDS011;42360;42.918;12.366;2022-08-21T11:43:48;1.08;;;0.70;;
56457;SDS011;42360;42.918;12.366;2022-08-21T11:54:31;1.30;;;0.70;;
56457;SDS011;42360;42.918;12.366;2022-08-21T11:57:03;1.15;;;0.50;;
56457;SDS011;42360;42.918;12.366;2022-08-21T12:00:11;1.50;;;1.03;;
56457;SDS011;42360;42.918;12.366;2022-08-21T12:02:51;0.80;;;0.70;;
56457;SDS011;42360;42.918;12.366;2022-08-21T12:05:34;1.13;;;0.80;;
56457;SDS011;42360;42.918;12.366;2022-08-21T12:08:13;1.13;;;0.70;;
56457;SDS011;42360;42.918;12.366;2022-08-21T12:10:59;1.40;;;0.73;;
56457;SDS011;42360;42.918;12.366;2022-08-21T12:13:52;1.70;;;0.70;;
56457;SDS011;42360;42.918;12.366;2022-08-21T12:16:32;1.17;;;0.85;;
56457;SDS011;42360;42.918;12.366;2022-08-21T12:19:05;1.05;;;0.70;;
56457;SDS011;42360;42.918;12.366;2022-08-21T12:21:49;0.80;;;0.80;;
56457;SDS011;42360;42.918;12.366;2022-08-21T12:29:47;1.48;;;0.70;;
56457;SDS011;42360;42.918;12.366;2022-08-21T12:34:54;0.68;;;0.68;;
56457;SDS011;42360;42.918;12.366;2022-08-21T12:37:39;0.82;;;0.70;;
56457;SDS011;42360;42.918;12.366;2022-08-21T12:40:22;0.93;;;0.82;;
56457;SDS011;42360;42.918;12.366;2022-08-21T12:42:50;1.95;;;0.73;;
56457;SDS011;42360;42.918;12.366;2022-08-21T12:48:10;1.25;;;0.93;;
56457;SDS011;42360;42.918;12.366;2022-08-21T12:50:53;1.00;;;0.80;;
56457;SDS011;42360;42.918;12.366;2022-08-21T12:53:32;1.52;;;0.93;;
56457;SDS011;42360;42.918;12.366;2022-08-21T12:56:03;2.25;;;0.70;;
56457;SDS011;42360;42.918;12.366;2022-08-21T12:58:34;1.60;;;0.90;;
56457;SDS011;42360;42.918;12.366;2022-08-21T13:01:11;1.48;;;0.70;;
56457;SDS011;42360;42.918;12.366;2022-08-21T13:03:50;1.30;;;0.68;;
56457;SDS011;42360;42.918;12.366;2022-08-21T13:06:17;0.60;;;0.60;;
56457;SDS011;42360;42.918;12.366;2022-08-21T13:08:45;1.58;;;0.60;;
56457;SDS011;42360;42.918;12.366;2022-08-21T13:11:13;1.58;;;0.80;;
56457;SDS011;42360;42.918;12.366;2022-08-21T13:13:40;1.90;;;0.90;;
56457;SDS011;42360;42.918;12.366;2022-08-21T13:16:07;1.40;;;0.85;;
56457;SDS011;42360;42.918;12.366;2022-08-21T13:18:34;1.02;;;0.88;;
56457;SDS011;42360;42.918;12.366;2022-08-21T13:21:03;1.52;;;1.00;;
56457;SDS011;42360;42.918;12.366;2022-08-21T13:23:38;1.10;;;0.60;;
56457;SDS011;42360;42.918;12.366;2022-08-21T13:28:39;2.97;;;1.20;;
56457;SDS011;42360;42.918;12.366;2022-08-21T13:31:06;0.88;;;0.88;;
56457;SDS011;42360;42.918;12.366;2022-08-21T13:33:35;1.55;;;0.68;;
56457;SDS011;42360;42.918;12.366;2022-08-21T13:38:36;1.13;;;0.82;;
56457;SDS011;42360;42.918;12.366;2022-08-21T13:41:06;2.72;;;1.40;;
56457;SDS011;42360;42.918;12.366;2022-08-21T13:44:01;2.03;;;1.33;;
56457;SDS011;42360;42.918;12.366;2022-08-21T13:46:51;4.80;;;1.08;;
56457;SDS011;42360;42.918;12.366;2022-08-21T13:49:18;1.77;;;1.00;;
56457;SDS011;42360;42.918;12.366;2022-08-21T13:51:54;0.63;;;0.60;;
56457;SDS011;42360;42.918;12.366;2022-08-21T13:54:27;1.55;;;0.93;;
56457;SDS011;42360;42.918;12.366;2022-08-21T13:56:57;2.90;;;0.90;;
56457;SDS011;42360;42.918;12.366;2022-08-21T13:59:24;1.25;;;0.70;;
56457;SDS011;42360;42.918;12.366;2022-08-21T14:07:00;2.10;;;1.00;;
56457;SDS011;42360;42.918;12.366;2022-08-21T14:09:32;1.40;;;0.90;;
56457;SDS011;42360;42.918;12.366;2022-08-21T14:12:01;1.73;;;0.90;;
56457;SDS011;42360;42.918;12.366;2022-08-21T14:14:37;1.80;;;0.90;;
56457;SDS011;42360;42.918;12.366;2022-08-21T14:17:06;1.05;;;0.88;;
56457;SDS011;42360;42.918;12.366;2022-08-21T14:19:36;2.47;;;1.20;;
56457;SDS011;42360;42.918;12.366;2022-08-21T14:25:04;0.70;;;0.70;;
56457;SDS011;42360;42.918;12.366;2022-08-21T14:27:32;0.85;;;0.60;;
56457;SDS011;42360;42.918;12.366;2022-08-21T14:30:00;1.80;;;0.77;;
56457;SDS011;42360;42.918;12.366;2022-08-21T14:32:34;1.17;;;0.80;;
56457;SDS011;42360;42.918;12.366;2022-08-21T14:35:02;0.63;;;0.60;;
56457;SDS011;42360;42.918;12.366;2022-08-21T14:37:28;0.93;;;0.60;;
56457;SDS011;42360;42.918;12.366;2022-08-21T14:39:54;1.25;;;0.80;;
56457;SDS011;42360;42.918;12.366;2022-08-21T14:42:20;0.90;;;0.75;;
56457;SDS011;42360;42.918;12.366;2022-08-21T14:44:45;0.90;;;0.70;;
56457;SDS011;42360;42.918;12.366;2022-08-21T14:47:12;1.92;;;0.80;;
56457;SDS011;42360;42.918;12.366;2022-08-21T14:49:37;0.73;;;0.63;;
56457;SDS011;42360;42.918;12.366;2022-08-21T14:52:03;1.70;;;0.90;;
56457;SDS011;42360;42.918;12.366;2022-08-21T14:54:30;1.95;;;0.68;;
56457;SDS011;42360;42.918;12.366;2022-08-21T14:56:56;0.57;;;0.57;;
56457;SDS011;42360;42.918;12.366;2022-08-21T14:59:23;1.60;;;0.70;;
56457;SDS011;42360;42.918;12.366;2022-08-21T15:01:50;2.58;;;0.80;;
56457;SDS011;42360;42.918;12.366;2022-08-21T15:04:17;3.00;;;0.80;;
56457;SDS011;42360;42.918;12.366;2022-08-21T15:06:42;2.25;;;0.70;;
56457;SDS011;42360;42.918;12.366;2022-08-21T15:09:08;2.78;;;1.20;;
56457;SDS011;42360;42.918;12.366;2022-08-21T15:11:34;4.03;;;1.35;;
56457;SDS011;42360;42.918;12.366;2022-08-21T15:14:00;2.03;;;1.50;;
56457;SDS011;42360;42.918;12.366;2022-08-21T15:16:28;1.42;;;0.77;;
56457;SDS011;42360;42.918;12.366;2022-08-21T15:18:58;2.53;;;0.80;;
56457;SDS011;42360;42.918;12.366;2022-08-21T15:21:23;1.20;;;1.00;;
56457;SDS011;42360;42.918;12.366;2022-08-21T15:23:49;1.70;;;0.82;;
56457;SDS011;42360;42.918;12.366;2022-08-21T15:26:15;2.00;;;0.80;;
56457;SDS011;42360;42.918;12.366;2022-08-21T15:28:41;1.38;;;0.82;;
56457;SDS011;42360;42.918;12.366;2022-08-21T15:31:07;3.42;;;0.80;;
56457;SDS011;42360;42.918;12.366;2022-08-21T15:33:33;2.20;;;0.90;;
56457;SDS011;42360;42.918;12.366;2022-08-21T15:35:58;1.00;;;0.90;;
56457;SDS011;42360;42.918;12.366;2022-08-21T15:38:24;1.00;;;0.75;;
56457;SDS011;42360;42.918;12.366;2022-08-21T15:40:50;1.48;;;0.70;;
56457;SDS011;42360;42.918;12.366;2022-08-21T15:45:51;1.02;;;0.60;;
56457;SDS011;42360;42.918;12.366;2022-08-21T15:48:17;0.70;;;0.70;;
56457;SDS011;42360;42.918;12.366;2022-08-21T15:50:43;2.15;;;0.70;;
56457;SDS011;42360;42.918;12.366;2022-08-21T15:53:09;0.90;;;0.77;;
56457;SDS011;42360;42.918;12.366;2022-08-21T15:55:34;1.42;;;0.73;;
56457;SDS011;42360;42.918;12.366;2022-08-21T15:58:00;3.17;;;0.80;;
56457;SDS011;42360;42.918;12.366;2022-08-21T16:00:26;1.30;;;0.80;;
56457;SDS011;42360;42.918;12.366;2022-08-21T16:02:53;1.10;;;0.70;;
56457;SDS011;42360;42.918;12.366;2022-08-21T16:05:20;1.95;;;0.70;;
56457;SDS011;42360;42.918;12.366;2022-08-21T16:07:47;1.48;;;0.73;;
56457;SDS011;42360;42.918;12.366;2022-08-21T16:10:14;4.95;;;0.93;;
56457;SDS011;42360;42.918;12.366;2022-08-21T16:12:44;1.25;;;0.82;;
56457;SDS011;42360;42.918;12.366;2022-08-21T16:15:13;2.55;;;0.70;;